createdAt,value
2018-11-26T00:07:04.626Z,48
2018-11-26T00:17:08.173Z,47
2018-11-26T00:27:11.809Z,47
2018-11-26T00:37:15.415Z,48
2018-11-26T00:47:18.997Z,48
2018-11-26T00:57:22.651Z,48
2018-11-26T01:07:26.301Z,48
2018-11-26T01:17:29.957Z,48
2018-11-26T01:27:33.600Z,48
2018-11-26T01:37:37.115Z,47
2018-11-26T01:47:40.700Z,47
2018-11-26T01:57:45.393Z,47
2018-11-26T02:07:49.030Z,47
2018-11-26T02:17:52.605Z,47
2018-11-26T02:27:56.194Z,47
2018-11-26T02:38:00.880Z,47
2018-11-26T02:48:04.417Z,47
2018-11-26T02:58:08.087Z,47
2018-11-26T03:08:11.760Z,47
2018-11-26T03:18:15.398Z,47
2018-11-26T03:28:19.042Z,47
2018-11-26T03:38:22.712Z,47
2018-11-26T03:48:26.232Z,47
2018-11-26T03:58:29.911Z,47
2018-11-26T04:08:33.483Z,47
2018-11-26T04:18:37.140Z,47
2018-11-26T04:28:40.977Z,47
2018-11-26T04:38:44.843Z,47
2018-11-26T04:48:48.683Z,47
2018-11-26T04:58:52.346Z,47
2018-11-26T05:08:55.939Z,47
2018-11-26T05:18:59.493Z,47
2018-11-26T05:29:03.210Z,47
2018-11-26T05:39:06.933Z,47
2018-11-26T05:49:10.478Z,48
2018-11-26T05:59:14.170Z,48
2018-11-26T06:09:17.781Z,48
2018-11-26T06:19:21.533Z,48
2018-11-26T06:29:26.208Z,31
2018-11-26T06:39:29.902Z,42
2018-11-26T06:49:33.565Z,43
2018-11-26T06:59:37.318Z,44
2018-11-26T07:09:40.874Z,45
2018-11-26T07:19:44.501Z,46
2018-11-26T07:29:48.162Z,47
2018-11-26T07:39:51.803Z,48
2018-11-26T07:49:55.342Z,50
2018-11-26T07:59:58.909Z,51
2018-11-26T08:10:02.534Z,51
2018-11-26T08:20:06.361Z,51
2018-11-26T08:30:09.914Z,51
2018-11-26T08:40:13.552Z,53
2018-11-26T08:50:17.082Z,57
2018-11-26T09:00:20.691Z,58
2018-11-26T09:10:24.302Z,62
2018-11-26T09:20:29.137Z,64
2018-11-26T09:30:32.762Z,65
2018-11-26T09:40:36.431Z,65
2018-11-26T09:50:39.940Z,65
2018-11-26T10:00:43.710Z,66
2018-11-26T10:10:47.279Z,65
2018-11-26T10:20:50.859Z,64
2018-11-26T10:30:54.411Z,63
2018-11-26T10:40:57.957Z,62
2018-11-26T10:51:01.512Z,62
2018-11-26T11:01:05.146Z,61
2018-11-26T11:11:08.746Z,61
2018-11-26T11:21:12.332Z,62
2018-11-26T11:31:16.013Z,62
2018-11-26T11:41:19.609Z,65
2018-11-26T11:51:23.223Z,67
2018-11-26T12:01:26.952Z,67
2018-11-26T12:11:31.384Z,55
2018-11-26T12:21:36.790Z,58
2018-11-26T12:31:40.489Z,59
2018-11-26T13:23:05.842Z,67
2018-11-26T13:33:17.011Z,68
2018-11-26T13:43:30.219Z,68
2018-11-26T13:54:21.420Z,64
2018-11-26T14:04:26.274Z,68
2018-11-26T14:14:29.933Z,68
2018-11-26T14:24:33.483Z,69
2018-11-26T14:34:37.209Z,71
2018-11-26T14:44:40.782Z,71
2018-11-26T14:54:44.356Z,71
2018-11-26T15:04:47.900Z,71
2018-11-26T15:14:51.545Z,69
2018-11-26T15:24:55.162Z,71
2018-11-26T15:34:58.844Z,67
2018-11-26T15:45:02.556Z,72
2018-11-26T15:55:06.234Z,72
2018-11-26T16:05:09.904Z,65
2018-11-26T16:15:13.505Z,64
2018-11-26T16:25:17.031Z,64
2018-11-26T16:35:20.715Z,63
2018-11-26T16:45:24.366Z,63
2018-11-26T16:55:27.931Z,63
2018-11-26T17:05:31.530Z,65
2018-11-26T17:15:35.091Z,66
2018-11-26T17:25:38.793Z,61
2018-11-26T17:35:42.486Z,62
2018-11-26T17:45:46.118Z,62
2018-11-26T17:55:49.801Z,61
2018-11-26T18:05:53.378Z,61
2018-11-26T18:15:57.007Z,60
2018-11-26T18:26:00.518Z,59
2018-11-26T18:36:04.051Z,63
2018-11-26T18:46:07.748Z,59
2018-11-26T18:56:11.343Z,60
2018-11-26T19:06:14.926Z,60
2018-11-26T19:16:18.508Z,60
2018-11-26T19:26:22.134Z,60
2018-11-26T19:36:25.750Z,68
2018-11-26T19:46:29.312Z,60
2018-11-26T19:56:32.940Z,60
2018-11-26T20:06:36.520Z,64
2018-11-26T20:16:40.108Z,60
2018-11-26T20:26:43.732Z,59
2018-11-26T20:36:47.342Z,60
2018-11-26T20:46:50.940Z,60
2018-11-26T20:56:54.600Z,59
2018-11-26T21:06:58.175Z,60
2018-11-26T21:17:01.800Z,59
2018-11-26T21:27:05.433Z,59
2018-11-26T21:37:08.979Z,58
2018-11-26T21:47:12.585Z,58
2018-11-26T21:57:16.236Z,58
2018-11-26T22:07:19.880Z,57
2018-11-26T22:17:23.465Z,57
2018-11-26T22:27:27.129Z,56
2018-11-26T22:37:30.704Z,56
2018-11-26T22:47:34.343Z,56
2018-11-26T22:57:37.922Z,55
2018-11-26T23:07:41.578Z,59
2018-11-26T23:17:45.228Z,54
2018-11-26T23:27:48.837Z,54
2018-11-26T23:37:53.449Z,55
2018-11-26T23:47:56.991Z,53
2018-11-26T23:58:00.635Z,54
